createdAt,value
2022-12-19T16:37:02.105Z,11.25
2022-12-19T16:38:01.971Z,11.18
2022-12-19T16:39:01.887Z,11.51
2022-12-19T16:40:01.778Z,10.23
2022-12-19T16:41:01.834Z,9.91
2022-12-19T16:42:01.554Z,9.24
2022-12-19T16:43:01.427Z,10.98
2022-12-19T16:47:44.222Z,10.77
2022-12-19T16:48:44.218Z,9.70
2022-12-19T16:49:44.221Z,10.59
2022-12-19T16:50:44.190Z,9.35
2022-12-19T16:51:44.205Z,9.88
2022-12-19T16:52:44.164Z,9.20
2022-12-19T16:53:44.189Z,9.60
2022-12-19T16:54:44.161Z,9.92
2022-12-19T16:55:44.165Z,9.84
2022-12-19T16:56:44.144Z,9.55
2022-12-19T16:57:44.147Z,10.32
2022-12-19T16:58:44.135Z,8.64
2022-12-19T16:59:44.132Z,9.52
2022-12-19T17:00:44.123Z,8.70
2022-12-19T17:01:44.303Z,8.49
2022-12-19T17:02:44.237Z,8.43
2022-12-19T17:03:44.092Z,8.97
2022-12-19T17:04:48.940Z,7.89
2022-12-19T17:05:45.069Z,8.37
2022-12-19T17:06:44.064Z,8.28
2022-12-19T17:07:44.051Z,9.09
2022-12-19T17:08:44.042Z,8.74
2022-12-19T17:09:44.040Z,9.00
2022-12-19T17:10:44.028Z,8.57
2022-12-19T17:11:44.019Z,8.34
2022-12-19T17:12:44.030Z,7.61
2022-12-19T17:13:44.019Z,8.73
2022-12-19T17:14:43.977Z,8.52
2022-12-19T17:15:44.002Z,9.18
2022-12-19T17:16:44.016Z,9.19
2022-12-19T17:17:43.986Z,8.25
2022-12-19T17:18:43.946Z,8.61
2022-12-19T17:19:43.950Z,7.22
2022-12-19T17:20:43.935Z,8.11
2022-12-19T17:21:43.956Z,8.65
2022-12-19T17:22:43.926Z,8.17
2022-12-19T17:23:43.922Z,8.09
2022-12-19T17:24:43.903Z,7.50
2022-12-19T17:25:43.921Z,7.23
2022-12-19T17:26:43.879Z,8.32
2022-12-19T17:27:43.886Z,7.94
2022-12-19T17:28:43.863Z,7.71
2022-12-19T17:29:43.890Z,7.51
2022-12-19T17:30:43.924Z,7.86
2022-12-19T17:31:43.932Z,7.58
2022-12-19T17:32:43.883Z,7.00
2022-12-19T17:33:43.852Z,6.91
2022-12-19T17:34:43.830Z,7.17
2022-12-19T17:35:43.844Z,7.20
2022-12-19T17:36:43.803Z,7.50
2022-12-19T17:37:43.832Z,8.20
2022-12-19T17:38:43.801Z,8.02
2022-12-19T17:39:43.812Z,7.22
2022-12-19T17:40:43.784Z,6.78
2022-12-19T17:41:43.777Z,6.99
2022-12-19T21:21:33.555Z,6.89
2022-12-19T21:22:33.256Z,26.64
2022-12-19T21:23:33.055Z,26.75
2022-12-19T21:24:33.053Z,25.26
2022-12-19T21:25:32.552Z,25.31
2022-12-19T21:26:32.545Z,28.96
2022-12-19T21:27:32.234Z,28.72
2022-12-19T21:28:32.153Z,28.85
2022-12-19T21:29:32.877Z,29.03
2022-12-19T21:30:32.060Z,28.18
2022-12-19T21:31:31.711Z,29.07
2022-12-19T21:32:31.568Z,28.46
2022-12-19T21:33:33.013Z,26.65
2022-12-19T21:34:31.293Z,26.37
2022-12-19T21:35:33.023Z,24.81
2022-12-19T21:36:31.016Z,27.38
2022-12-19T21:37:34.096Z,26.63
2022-12-19T21:38:31.628Z,25.77
2022-12-19T21:39:30.494Z,25.00
2022-12-19T21:40:30.320Z,25.92
2022-12-19T21:41:31.009Z,24.34
2022-12-19T21:42:29.997Z,24.78
2022-12-19T21:43:30.508Z,24.34
2022-12-19T21:44:29.597Z,24.32
2022-12-19T21:45:29.502Z,24.15
2022-12-19T21:46:30.364Z,23.20
2022-12-19T21:47:29.515Z,23.27
2022-12-19T21:48:28.937Z,22.21
2022-12-19T21:49:28.614Z,24.01
2022-12-19T21:50:28.536Z,23.80
2022-12-19T21:51:28.340Z,23.00
2022-12-19T21:52:28.218Z,23.47
2022-12-19T21:53:28.064Z,23.55
2022-12-19T21:54:28.033Z,22.51
2022-12-19T21:55:28.066Z,22.10
2022-12-19T21:56:27.738Z,22.21
2022-12-19T21:57:27.534Z,23.14
2022-12-19T21:58:27.155Z,23.04
2022-12-19T21:59:26.838Z,22.60
2022-12-19T22:00:26.678Z,23.68
2022-12-19T22:01:26.588Z,22.68
2022-12-19T22:02:26.372Z,22.14
2022-12-19T22:03:26.442Z,23.23
2022-12-19T22:04:26.044Z,21.59
2022-12-19T22:05:26.050Z,22.23
2022-12-19T22:06:28.124Z,22.65
2022-12-19T22:07:25.560Z,21.96
2022-12-19T22:08:25.664Z,22.15
2022-12-19T22:09:24.960Z,21.94
2022-12-19T22:10:24.763Z,21.57
2022-12-19T22:11:24.552Z,22.49
2022-12-19T22:12:24.458Z,22.04
2022-12-19T22:13:24.583Z,22.53
2022-12-19T22:14:24.061Z,21.15
2022-12-19T22:15:26.935Z,21.86
2022-12-19T22:16:27.087Z,21.97
2022-12-19T22:17:23.573Z,22.49
2022-12-19T22:18:23.574Z,21.85
2022-12-19T22:19:23.089Z,21.82
2022-12-19T22:20:26.045Z,20.93
2022-12-19T22:21:22.781Z,21.48
2022-12-19T22:22:22.501Z,21.74
2022-12-19T22:23:22.279Z,20.34
2022-12-19T22:24:22.078Z,20.82
2022-12-19T22:25:22.603Z,21.00
2022-12-19T22:26:21.709Z,21.12
2022-12-19T22:27:21.503Z,21.57
2022-12-19T22:28:21.333Z,22.27
2022-12-19T22:29:21.092Z,21.85
2022-12-19T22:30:21.018Z,21.85
2022-12-19T22:34:21.168Z,21.29
2022-12-19T22:35:21.547Z,20.53
2022-12-19T22:36:27.367Z,20.23
2022-12-19T22:37:21.107Z,21.21
2022-12-19T22:38:19.408Z,20.75
2022-12-19T22:39:19.239Z,21.19
2022-12-19T22:40:19.014Z,20.85
2022-12-19T22:41:18.835Z,20.57
2022-12-19T22:42:18.616Z,22.71
2022-12-19T22:43:18.447Z,21.66
2022-12-19T22:44:18.348Z,20.09
2022-12-19T22:45:18.163Z,20.57
2022-12-19T22:46:18.053Z,19.67
2022-12-19T22:47:17.737Z,19.58
2022-12-19T22:48:17.573Z,19.88
2022-12-19T22:49:17.692Z,19.71
2022-12-19T22:50:17.676Z,20.35
2022-12-19T22:51:17.172Z,20.28
2022-12-19T22:52:17.156Z,20.90
2022-12-19T22:53:16.665Z,20.09
2022-12-19T22:54:16.702Z,20.48
2022-12-19T22:55:16.692Z,19.81
2022-12-19T22:56:16.172Z,20.26
2022-12-19T22:57:15.896Z,18.85
2022-12-19T22:58:15.570Z,19.13
2022-12-19T22:59:15.462Z,20.93
2022-12-19T23:00:15.254Z,19.96
2022-12-19T23:01:15.080Z,18.98
2022-12-19T23:02:14.977Z,19.94
2022-12-19T23:03:14.813Z,21.05
2022-12-19T23:04:14.734Z,19.57
2022-12-19T23:05:14.298Z,20.96
2022-12-19T23:06:14.088Z,20.07
2022-12-19T23:07:13.870Z,18.95
2022-12-19T23:08:13.689Z,20.14
2022-12-19T23:09:13.505Z,19.21
2022-12-19T23:10:13.691Z,20.67
2022-12-19T23:24:13.677Z,18.78
2022-12-19T23:28:09.935Z,19.17
2022-12-19T23:29:09.756Z,18.87
2022-12-19T23:33:08.935Z,18.80
2022-12-19T23:34:08.749Z,18.76
2022-12-19T23:36:09.177Z,18.52
2022-12-19T23:37:11.175Z,18.93
2022-12-19T23:38:08.046Z,19.85
2022-12-19T23:39:07.861Z,19.23
2022-12-19T23:40:07.652Z,18.46
2022-12-19T23:41:07.447Z,19.16
2022-12-19T23:42:07.247Z,18.90
2022-12-19T23:43:07.657Z,18.55
2022-12-19T23:44:07.177Z,19.13
2022-12-19T23:46:07.620Z,19.09
